sensor_id;sensor_type;location;lat;lon;timestamp;pressure;altitude;pressure_sealevel;temperature;humidity
41264;BME280;26998;48.714;9.414;2023-04-21T00:01:16;98588.97;;;3.85;100.00
41264;BME280;26998;48.714;9.414;2023-04-21T00:03:43;98583.19;;;3.82;100.00
41264;BME280;26998;48.714;9.414;2023-04-21T00:06:09;98571.13;;;3.79;100.00
41264;BME280;26998;48.714;9.414;2023-04-21T00:08:36;98576.41;;;3.79;100.00
41264;BME280;26998;48.714;9.414;2023-04-21T00:11:03;98563.00;;;3.73;100.00
41264;BME280;26998;48.714;9.414;2023-04-21T00:13:29;98565.28;;;3.67;100.00
41264;BME280;26998;48.714;9.414;2023-04-21T00:15:56;98558.38;;;3.66;100.00
41264;BME280;26998;48.714;9.414;2023-04-21T00:18:23;98558.69;;;3.63;100.00
41264;BME280;26998;48.714;9.414;2023-04-21T00:20:49;98551.06;;;3.60;100.00
41264;BME280;26998;48.714;9.414;2023-04-21T00:23:15;98545.78;;;3.60;100.00
41264;BME280;26998;48.714;9.414;2023-04-21T00:25:42;98534.41;;;3.60;100.00
41264;BME280;26998;48.714;9.414;2023-04-21T00:28:08;98536.53;;;3.56;100.00
41264;BME280;26998;48.714;9.414;2023-04-21T00:30:35;98524.31;;;3.55;100.00
41264;BME280;26998;48.714;9.414;2023-04-21T00:33:01;98528.75;;;3.55;100.00
41264;BME280;26998;48.714;9.414;2023-04-21T00:35:28;98523.34;;;3.56;100.00
41264;BME280;26998;48.714;9.414;2023-04-21T00:37:55;98520.69;;;3.56;100.00
41264;BME280;26998;48.714;9.414;2023-04-21T00:40:21;98514.41;;;3.57;100.00
41264;BME280;26998;48.714;9.414;2023-04-21T00:42:48;98508.66;;;3.62;100.00
41264;BME280;26998;48.714;9.414;2023-04-21T00:45:15;98520.88;;;3.63;100.00
41264;BME280;26998;48.714;9.414;2023-04-21T00:47:41;98506.16;;;3.60;100.00
41264;BME280;26998;48.714;9.414;2023-04-21T00:50:09;98502.84;;;3.50;100.00
41264;BME280;26998;48.714;9.414;2023-04-21T00:52:39;98507.94;;;3.43;100.00
41264;BME280;26998;48.714;9.414;2023-04-21T00:55:06;98496.34;;;3.36;100.00
41264;BME280;26998;48.714;9.414;2023-04-21T00:57:35;98501.13;;;3.33;100.00
41264;BME280;26998;48.714;9.414;2023-04-21T01:00:05;98501.81;;;3.35;100.00
41264;BME280;26998;48.714;9.414;2023-04-21T01:02:35;98503.25;;;3.29;100.00
41264;BME280;26998;48.714;9.414;2023-04-21T01:05:05;98491.88;;;3.29;100.00
41264;BME280;26998;48.714;9.414;2023-04-21T01:07:32;98480.00;;;3.33;100.00
41264;BME280;26998;48.714;9.414;2023-04-21T01:09:58;98482.00;;;3.31;100.00
41264;BME280;26998;48.714;9.414;2023-04-21T01:12:25;98479.66;;;3.28;100.00
41264;BME280;26998;48.714;9.414;2023-04-21T01:14:51;98478.84;;;3.35;100.00
41264;BME280;26998;48.714;9.414;2023-04-21T01:17:20;98477.72;;;3.38;100.00
41264;BME280;26998;48.714;9.414;2023-04-21T01:19:47;98474.25;;;3.37;100.00
41264;BME280;26998;48.714;9.414;2023-04-21T01:22:15;98470.44;;;3.32;100.00
41264;BME280;26998;48.714;9.414;2023-04-21T01:24:44;98471.88;;;3.26;100.00
41264;BME280;26998;48.714;9.414;2023-04-21T01:27:14;98464.59;;;3.20;100.00
41264;BME280;26998;48.714;9.414;2023-04-21T01:29:42;98459.50;;;3.18;100.00
41264;BME280;26998;48.714;9.414;2023-04-21T01:32:11;98463.97;;;3.18;100.00
41264;BME280;26998;48.714;9.414;2023-04-21T01:34:41;98465.75;;;3.17;100.00
41264;BME280;26998;48.714;9.414;2023-04-21T01:37:12;98470.38;;;3.15;100.00
41264;BME280;26998;48.714;9.414;2023-04-21T01:39:42;98465.88;;;3.08;100.00
41264;BME280;26998;48.714;9.414;2023-04-21T01:42:10;98467.03;;;3.05;100.00
41264;BME280;26998;48.714;9.414;2023-04-21T01:44:36;98474.31;;;3.03;100.00
41264;BME280;26998;48.714;9.414;2023-04-21T01:47:03;98472.63;;;3.02;100.00
41264;BME280;26998;48.714;9.414;2023-04-21T01:49:30;98477.25;;;3.00;100.00
41264;BME280;26998;48.714;9.414;2023-04-21T01:51:57;98468.34;;;3.01;100.00
41264;BME280;26998;48.714;9.414;2023-04-21T01:54:24;98480.22;;;2.97;100.00
41264;BME280;26998;48.714;9.414;2023-04-21T01:56:53;98484.31;;;2.91;100.00
41264;BME280;26998;48.714;9.414;2023-04-21T01:59:19;98477.84;;;2.86;100.00
41264;BME280;26998;48.714;9.414;2023-04-21T02:01:46;98470.75;;;2.86;100.00
41264;BME280;26998;48.714;9.414;2023-04-21T02:04:14;98465.78;;;2.83;100.00
41264;BME280;26998;48.714;9.414;2023-04-21T02:06:41;98469.41;;;2.82;100.00
41264;BME280;26998;48.714;9.414;2023-04-21T02:09:07;98468.28;;;2.85;100.00
41264;BME280;26998;48.714;9.414;2023-04-21T02:11:34;98474.25;;;2.87;100.00
41264;BME280;26998;48.714;9.414;2023-04-21T02:14:01;98473.38;;;2.86;100.00
41264;BME280;26998;48.714;9.414;2023-04-21T02:16:27;98473.38;;;2.86;100.00
41264;BME280;26998;48.714;9.414;2023-04-21T02:18:56;98463.06;;;2.93;100.00
41264;BME280;26998;48.714;9.414;2023-04-21T02:21:23;98459.41;;;2.94;100.00
41264;BME280;26998;48.714;9.414;2023-04-21T02:23:51;98463.56;;;2.96;100.00
41264;BME280;26998;48.714;9.414;2023-04-21T02:26:18;98466.34;;;2.95;100.00
41264;BME280;26998;48.714;9.414;2023-04-21T02:28:47;98469.97;;;2.94;100.00
41264;BME280;26998;48.714;9.414;2023-04-21T02:31:13;98472.94;;;2.99;100.00
41264;BME280;26998;48.714;9.414;2023-04-21T02:33:41;98474.44;;;3.01;100.00
41264;BME280;26998;48.714;9.414;2023-04-21T02:36:07;98477.84;;;2.86;100.00
41264;BME280;26998;48.714;9.414;2023-04-21T02:38:34;98476.56;;;2.90;100.00
41264;BME280;26998;48.714;9.414;2023-04-21T02:41:01;98480.84;;;2.91;100.00
41264;BME280;26998;48.714;9.414;2023-04-21T02:43:27;98479.47;;;2.78;100.00
41264;BME280;26998;48.714;9.414;2023-04-21T02:45:54;98476.16;;;2.76;100.00
41264;BME280;26998;48.714;9.414;2023-04-21T02:48:20;98476.84;;;2.78;100.00
41264;BME280;26998;48.714;9.414;2023-04-21T02:50:48;98477.28;;;2.74;100.00
41264;BME280;26998;48.714;9.414;2023-04-21T02:53:15;98480.28;;;2.79;100.00
41264;BME280;26998;48.714;9.414;2023-04-21T02:55:41;98482.47;;;2.84;100.00
41264;BME280;26998;48.714;9.414;2023-04-21T02:58:08;98479.84;;;2.84;100.00
41264;BME280;26998;48.714;9.414;2023-04-21T03:00:34;98475.19;;;2.77;100.00
41264;BME280;26998;48.714;9.414;2023-04-21T03:03:01;98470.72;;;2.78;100.00
41264;BME280;26998;48.714;9.414;2023-04-21T03:05:28;98454.72;;;2.80;100.00
41264;BME280;26998;48.714;9.414;2023-04-21T03:07:55;98455.41;;;2.82;100.00
41264;BME280;26998;48.714;9.414;2023-04-21T03:10:21;98454.41;;;2.83;100.00
41264;BME280;26998;48.714;9.414;2023-04-21T03:12:48;98447.81;;;2.78;100.00
41264;BME280;26998;48.714;9.414;2023-04-21T03:15:15;98431.59;;;2.73;100.00
41264;BME280;26998;48.714;9.414;2023-04-21T03:17:42;98434.94;;;2.75;100.00
41264;BME280;26998;48.714;9.414;2023-04-21T03:20:08;98441.84;;;2.76;100.00
41264;BME280;26998;48.714;9.414;2023-04-21T03:22:35;98435.59;;;2.77;100.00
41264;BME280;26998;48.714;9.414;2023-04-21T03:25:02;98438.50;;;2.66;100.00
41264;BME280;26998;48.714;9.414;2023-04-21T03:27:29;98432.25;;;2.67;100.00
41264;BME280;26998;48.714;9.414;2023-04-21T03:29:55;98441.28;;;2.57;100.00
41264;BME280;26998;48.714;9.414;2023-04-21T03:32:22;98440.09;;;2.51;100.00
41264;BME280;26998;48.714;9.414;2023-04-21T03:34:49;98436.94;;;2.47;100.00
41264;BME280;26998;48.714;9.414;2023-04-21T03:37:15;98436.13;;;2.47;100.00
41264;BME280;26998;48.714;9.414;2023-04-21T03:39:42;98429.84;;;2.48;100.00
41264;BME280;26998;48.714;9.414;2023-04-21T03:42:08;98441.91;;;2.50;100.00
41264;BME280;26998;48.714;9.414;2023-04-21T03:44:35;98431.28;;;2.42;100.00
41264;BME280;26998;48.714;9.414;2023-04-21T03:47:02;98438.00;;;2.37;100.00
41264;BME280;26998;48.714;9.414;2023-04-21T03:49:28;98440.00;;;2.35;100.00
41264;BME280;26998;48.714;9.414;2023-04-21T03:51:54;98443.41;;;2.27;100.00
41264;BME280;26998;48.714;9.414;2023-04-21T03:54:21;98443.88;;;2.22;100.00
41264;BME280;26998;48.714;9.414;2023-04-21T03:56:47;98441.25;;;2.22;100.00
41264;BME280;26998;48.714;9.414;2023-04-21T03:59:14;98444.81;;;2.13;100.00
41264;BME280;26998;48.714;9.414;2023-04-21T04:01:40;98453.41;;;2.15;100.00
41264;BME280;26998;48.714;9.414;2023-04-21T04:04:06;98454.03;;;2.17;100.00
41264;BME280;26998;48.714;9.414;2023-04-21T04:06:33;98458.66;;;2.15;100.00
41264;BME280;26998;48.714;9.414;2023-04-21T04:09:00;98462.25;;;2.14;100.00
41264;BME280;26998;48.714;9.414;2023-04-21T04:11:27;98451.06;;;2.12;100.00
41264;BME280;26998;48.714;9.414;2023-04-21T04:13:53;98448.13;;;2.15;100.00
41264;BME280;26998;48.714;9.414;2023-04-21T04:16:20;98449.28;;;2.21;100.00
41264;BME280;26998;48.714;9.414;2023-04-21T04:18:48;98450.34;;;2.28;100.00
41264;BME280;26998;48.714;9.414;2023-04-21T04:21:15;98445.72;;;2.30;100.00
41264;BME280;26998;48.714;9.414;2023-04-21T04:23:42;98449.66;;;2.26;100.00
41264;BME280;26998;48.714;9.414;2023-04-21T04:26:08;98453.50;;;2.31;100.00
41264;BME280;26998;48.714;9.414;2023-04-21T04:28:34;98442.44;;;2.28;100.00
41264;BME280;26998;48.714;9.414;2023-04-21T04:31:01;98447.09;;;2.34;100.00
41264;BME280;26998;48.714;9.414;2023-04-21T04:33:28;98445.78;;;2.38;100.00
41264;BME280;26998;48.714;9.414;2023-04-21T04:35:54;98439.81;;;2.36;100.00
41264;BME280;26998;48.714;9.414;2023-04-21T04:38:21;98442.44;;;2.28;100.00
41264;BME280;26998;48.714;9.414;2023-04-21T04:40:55;98447.84;;;2.26;100.00
41264;BME280;26998;48.714;9.414;2023-04-21T04:43:22;98457.31;;;2.37;100.00
41264;BME280;26998;48.714;9.414;2023-04-21T04:45:48;98464.56;;;2.35;100.00
41264;BME280;26998;48.714;9.414;2023-04-21T04:48:15;98477.38;;;2.30;100.00
41264;BME280;26998;48.714;9.414;2023-04-21T04:50:42;98460.22;;;2.26;100.00
41264;BME280;26998;48.714;9.414;2023-04-21T04:53:08;98450.13;;;2.47;100.00
41264;BME280;26998;48.714;9.414;2023-04-21T04:55:35;98449.63;;;2.52;100.00
41264;BME280;26998;48.714;9.414;2023-04-21T04:58:01;98449.88;;;2.59;100.00
41264;BME280;26998;48.714;9.414;2023-04-21T05:00:28;98455.16;;;2.59;100.00
41264;BME280;26998;48.714;9.414;2023-04-21T05:02:54;98462.88;;;2.60;100.00
41264;BME280;26998;48.714;9.414;2023-04-21T05:05:21;98465.16;;;2.55;100.00
41264;BME280;26998;48.714;9.414;2023-04-21T05:07:48;98458.13;;;2.64;100.00
41264;BME280;26998;48.714;9.414;2023-04-21T05:10:14;98456.66;;;2.69;100.00
41264;BME280;26998;48.714;9.414;2023-04-21T05:12:40;98460.63;;;2.65;100.00
41264;BME280;26998;48.714;9.414;2023-04-21T05:15:07;98468.16;;;2.60;100.00
41264;BME280;26998;48.714;9.414;2023-04-21T05:17:34;98471.69;;;2.69;100.00
41264;BME280;26998;48.714;9.414;2023-04-21T05:20:03;98470.09;;;2.50;100.00
41264;BME280;26998;48.714;9.414;2023-04-21T05:22:30;98472.88;;;2.48;100.00
41264;BME280;26998;48.714;9.414;2023-04-21T05:24:56;98483.72;;;2.45;100.00
41264;BME280;26998;48.714;9.414;2023-04-21T05:27:23;98498.94;;;2.51;100.00
41264;BME280;26998;48.714;9.414;2023-04-21T05:29:50;98503.81;;;2.38;100.00
41264;BME280;26998;48.714;9.414;2023-04-21T05:32:17;98521.53;;;2.54;100.00
41264;BME280;26998;48.714;9.414;2023-04-21T05:34:44;98515.59;;;2.52;100.00
41264;BME280;26998;48.714;9.414;2023-04-21T05:37:11;98511.81;;;2.54;100.00
41264;BME280;26998;48.714;9.414;2023-04-21T05:39:37;98512.34;;;2.58;100.00
41264;BME280;26998;48.714;9.414;2023-04-21T05:42:04;98495.97;;;2.46;100.00
41264;BME280;26998;48.714;9.414;2023-04-21T05:44:31;98493.31;;;2.46;100.00
41264;BME280;26998;48.714;9.414;2023-04-21T05:46:58;98485.00;;;2.67;100.00
41264;BME280;26998;48.714;9.414;2023-04-21T05:49:24;98484.94;;;2.85;100.00
41264;BME280;26998;48.714;9.414;2023-04-21T05:51:51;98490.09;;;2.95;100.00
41264;BME280;26998;48.714;9.414;2023-04-21T05:54:18;98484.88;;;3.11;100.00
41264;BME280;26998;48.714;9.414;2023-04-21T05:56:45;98479.31;;;3.22;100.00
41264;BME280;26998;48.714;9.414;2023-04-21T05:59:12;98477.34;;;3.24;100.00
41264;BME280;26998;48.714;9.414;2023-04-21T06:01:39;98461.69;;;3.31;100.00
41264;BME280;26998;48.714;9.414;2023-04-21T06:04:05;98461.88;;;3.46;100.00
41264;BME280;26998;48.714;9.414;2023-04-21T06:06:32;98467.00;;;3.47;100.00
41264;BME280;26998;48.714;9.414;2023-04-21T06:08:59;98460.53;;;3.42;100.00
41264;BME280;26998;48.714;9.414;2023-04-21T06:11:25;98459.09;;;3.64;100.00
41264;BME280;26998;48.714;9.414;2023-04-21T06:13:52;98455.63;;;3.63;100.00
41264;BME280;26998;48.714;9.414;2023-04-21T06:16:19;98456.59;;;3.54;100.00
41264;BME280;26998;48.714;9.414;2023-04-21T06:18:45;98450.19;;;3.65;100.00
41264;BME280;26998;48.714;9.414;2023-04-21T06:21:12;98462.56;;;3.89;100.00
41264;BME280;26998;48.714;9.414;2023-04-21T06:23:38;98463.22;;;4.07;100.00
41264;BME280;26998;48.714;9.414;2023-04-21T06:26:05;98471.50;;;3.88;100.00
41264;BME280;26998;48.714;9.414;2023-04-21T06:28:33;98494.13;;;3.82;100.00
41264;BME280;26998;48.714;9.414;2023-04-21T06:31:01;98489.34;;;3.86;100.00
41264;BME280;26998;48.714;9.414;2023-04-21T06:33:28;98500.59;;;3.88;100.00
41264;BME280;26998;48.714;9.414;2023-04-21T06:35:55;98512.00;;;3.80;100.00
41264;BME280;26998;48.714;9.414;2023-04-21T06:38:22;98529.03;;;4.02;100.00
41264;BME280;26998;48.714;9.414;2023-04-21T06:40:49;98566.06;;;4.19;100.00
41264;BME280;26998;48.714;9.414;2023-04-21T06:43:15;98580.78;;;4.54;100.00
41264;BME280;26998;48.714;9.414;2023-04-21T06:45:42;98578.94;;;4.54;100.00
41264;BME280;26998;48.714;9.414;2023-04-21T06:48:10;98588.03;;;4.84;100.00
41264;BME280;26998;48.714;9.414;2023-04-21T06:50:37;98588.47;;;5.04;100.00
41264;BME280;26998;48.714;9.414;2023-04-21T06:53:06;98616.16;;;5.02;100.00
41264;BME280;26998;48.714;9.414;2023-04-21T06:55:32;98660.16;;;4.95;100.00
41264;BME280;26998;48.714;9.414;2023-04-21T06:58:00;98696.75;;;4.99;100.00
41264;BME280;26998;48.714;9.414;2023-04-21T07:00:27;98705.34;;;5.01;100.00
41264;BME280;26998;48.714;9.414;2023-04-21T07:02:54;98694.75;;;5.34;100.00
41264;BME280;26998;48.714;9.414;2023-04-21T07:05:21;98724.56;;;5.36;100.00
41264;BME280;26998;48.714;9.414;2023-04-21T07:07:47;98744.41;;;5.32;100.00
41264;BME280;26998;48.714;9.414;2023-04-21T07:10:14;98764.63;;;5.41;100.00
41264;BME280;26998;48.714;9.414;2023-04-21T07:12:40;98784.50;;;5.62;100.00
41264;BME280;26998;48.714;9.414;2023-04-21T07:15:08;98813.47;;;5.71;100.00
41264;BME280;26998;48.714;9.414;2023-04-21T07:17:36;98836.19;;;5.74;100.00
41264;BME280;26998;48.714;9.414;2023-04-21T07:20:02;98821.56;;;5.94;100.00
41264;BME280;26998;48.714;9.414;2023-04-21T07:22:29;98836.13;;;6.07;100.00
41264;BME280;26998;48.714;9.414;2023-04-21T07:24:56;98850.41;;;6.14;100.00
41264;BME280;26998;48.714;9.414;2023-04-21T07:27:22;98846.44;;;6.01;100.00
41264;BME280;26998;48.714;9.414;2023-04-21T07:29:49;98845.44;;;6.11;100.00
41264;BME280;26998;48.714;9.414;2023-04-21T07:32:16;98849.75;;;6.04;100.00
41264;BME280;26998;48.714;9.414;2023-04-21T07:34:42;98840.47;;;5.99;100.00
41264;BME280;26998;48.714;9.414;2023-04-21T07:37:08;98841.09;;;6.18;100.00
41264;BME280;26998;48.714;9.414;2023-04-21T07:39:35;98846.69;;;6.31;100.00
41264;BME280;26998;48.714;9.414;2023-04-21T07:42:02;98848.31;;;6.40;100.00
41264;BME280;26998;48.714;9.414;2023-04-21T07:44:28;98856.94;;;6.82;100.00
41264;BME280;26998;48.714;9.414;2023-04-21T07:46:54;98872.19;;;7.42;100.00
41264;BME280;26998;48.714;9.414;2023-04-21T07:49:21;98899.69;;;7.57;100.00
41264;BME280;26998;48.714;9.414;2023-04-21T07:51:48;98905.94;;;7.42;100.00
41264;BME280;26998;48.714;9.414;2023-04-21T07:54:15;98910.66;;;7.77;100.00
41264;BME280;26998;48.714;9.414;2023-04-21T07:56:41;98916.31;;;7.74;100.00
41264;BME280;26998;48.714;9.414;2023-04-21T07:59:08;98926.09;;;7.82;100.00
41264;BME280;26998;48.714;9.414;2023-04-21T08:01:34;98913.78;;;7.81;100.00
41264;BME280;26998;48.714;9.414;2023-04-21T08:04:01;98926.56;;;7.85;100.00
41264;BME280;26998;48.714;9.414;2023-04-21T08:06:28;98929.50;;;7.91;100.00
41264;BME280;26998;48.714;9.414;2023-04-21T08:08:55;98928.53;;;7.37;100.00
41264;BME280;26998;48.714;9.414;2023-04-21T08:11:21;98923.00;;;7.47;100.00
41264;BME280;26998;48.714;9.414;2023-04-21T08:13:48;98919.66;;;7.91;100.00
41264;BME280;26998;48.714;9.414;2023-04-21T08:16:15;98926.41;;;8.40;100.00
41264;BME280;26998;48.714;9.414;2023-04-21T08:18:41;98913.50;;;9.17;100.00
41264;BME280;26998;48.714;9.414;2023-04-21T08:21:08;99002.41;;;9.24;100.00
41264;BME280;26998;48.714;9.414;2023-04-21T08:23:34;98936.38;;;9.27;100.00
41264;BME280;26998;48.714;9.414;2023-04-21T08:26:01;98930.34;;;9.76;100.00
41264;BME280;26998;48.714;9.414;2023-04-21T08:28:28;98883.28;;;10.24;100.00
41264;BME280;26998;48.714;9.414;2023-04-21T08:30:54;98882.34;;;10.32;100.00
41264;BME280;26998;48.714;9.414;2023-04-21T08:33:21;98889.91;;;9.36;100.00
41264;BME280;26998;48.714;9.414;2023-04-21T08:35:47;98916.72;;;9.49;100.00
41264;BME280;26998;48.714;9.414;2023-04-21T08:38:29;98935.50;;;9.19;100.00
41264;BME280;26998;48.714;9.414;2023-04-21T08:40:57;98932.31;;;9.31;100.00
41264;BME280;26998;48.714;9.414;2023-04-21T08:43:24;98848.19;;;10.27;100.00
41264;BME280;26998;48.714;9.414;2023-04-21T08:45:51;98747.00;;;10.59;100.00
41264;BME280;26998;48.714;9.414;2023-04-21T08:48:20;98745.63;;;10.70;100.00
41264;BME280;26998;48.714;9.414;2023-04-21T08:50:50;98818.25;;;10.86;100.00
41264;BME280;26998;48.714;9.414;2023-04-21T08:53:17;98826.72;;;10.42;100.00
41264;BME280;26998;48.714;9.414;2023-04-21T08:55:44;98818.16;;;10.53;100.00
41264;BME280;26998;48.714;9.414;2023-04-21T08:58:16;98746.06;;;10.86;100.00
41264;BME280;26998;48.714;9.414;2023-04-21T09:00:43;98780.81;;;10.80;100.00
41264;BME280;26998;48.714;9.414;2023-04-21T09:03:09;98761.53;;;11.04;100.00
41264;BME280;26998;48.714;9.414;2023-04-21T09:06:02;98679.88;;;11.28;100.00
41264;BME280;26998;48.714;9.414;2023-04-21T09:08:30;98637.81;;;11.55;100.00
41264;BME280;26998;48.714;9.414;2023-04-21T09:10:58;98675.72;;;11.39;100.00
41264;BME280;26998;48.714;9.414;2023-04-21T09:13:31;98670.91;;;11.94;100.00
41264;BME280;26998;48.714;9.414;2023-04-21T09:15:59;98622.66;;;12.08;100.00
41264;BME280;26998;48.714;9.414;2023-04-21T09:18:28;98612.44;;;12.30;100.00
41264;BME280;26998;48.714;9.414;2023-04-21T09:21:15;98585.91;;;12.53;100.00
41264;BME280;26998;48.714;9.414;2023-04-21T09:23:47;98582.50;;;12.89;100.00
41264;BME280;26998;48.714;9.414;2023-04-21T09:26:15;98508.25;;;12.90;100.00
41264;BME280;26998;48.714;9.414;2023-04-21T09:28:43;98561.47;;;12.36;100.00
41264;BME280;26998;48.714;9.414;2023-04-21T09:31:18;98577.00;;;12.59;100.00
41264;BME280;26998;48.714;9.414;2023-04-21T09:33:50;98559.66;;;12.87;100.00
41264;BME280;26998;48.714;9.414;2023-04-21T09:36:21;98557.00;;;12.55;100.00
41264;BME280;26998;48.714;9.414;2023-04-21T09:39:00;98545.06;;;13.01;100.00
41264;BME280;26998;48.714;9.414;2023-04-21T09:41:30;98494.22;;;13.31;100.00
41264;BME280;26998;48.714;9.414;2023-04-21T09:43:59;98461.63;;;13.46;100.00
41264;BME280;26998;48.714;9.414;2023-04-21T09:46:32;98441.47;;;13.55;100.00
41264;BME280;26998;48.714;9.414;2023-04-21T09:49:02;98409.94;;;13.93;100.00
41264;BME280;26998;48.714;9.414;2023-04-21T09:51:30;98439.00;;;13.84;100.00
41264;BME280;26998;48.714;9.414;2023-04-21T09:54:19;98432.63;;;13.67;100.00
41264;BME280;26998;48.714;9.414;2023-04-21T09:57:01;98427.94;;;13.62;100.00
41264;BME280;26998;48.714;9.414;2023-04-21T09:59:37;98437.94;;;13.55;100.00
41264;BME280;26998;48.714;9.414;2023-04-21T10:02:07;98441.53;;;13.49;100.00
41264;BME280;26998;48.714;9.414;2023-04-21T10:04:36;98453.16;;;13.61;100.00
41264;BME280;26998;48.714;9.414;2023-04-21T10:07:05;98438.25;;;13.65;100.00
41264;BME280;26998;48.714;9.414;2023-04-21T10:09:37;98434.75;;;13.76;100.00
41264;BME280;26998;48.714;9.414;2023-04-21T10:12:06;98435.84;;;13.57;100.00
41264;BME280;26998;48.714;9.414;2023-04-21T10:14:35;98425.78;;;13.82;100.00
41264;BME280;26998;48.714;9.414;2023-04-21T10:17:04;98406.63;;;13.79;100.00
41264;BME280;26998;48.714;9.414;2023-04-21T10:19:48;98395.78;;;13.85;100.00
41264;BME280;26998;48.714;9.414;2023-04-21T10:22:34;98372.47;;;14.45;100.00
41264;BME280;26998;48.714;9.414;2023-04-21T10:25:02;98353.78;;;14.62;100.00
41264;BME280;26998;48.714;9.414;2023-04-21T10:27:39;98378.28;;;13.95;100.00
41264;BME280;26998;48.714;9.414;2023-04-21T10:30:23;98399.13;;;14.35;100.00
41264;BME280;26998;48.714;9.414;2023-04-21T10:33:04;98355.84;;;14.48;100.00
41264;BME280;26998;48.714;9.414;2023-04-21T10:36:00;98346.81;;;14.89;100.00
41264;BME280;26998;48.714;9.414;2023-04-21T10:38:41;98344.13;;;14.89;100.00
41264;BME280;26998;48.714;9.414;2023-04-21T10:41:27;98316.97;;;15.19;100.00
41264;BME280;26998;48.714;9.414;2023-04-21T10:44:00;98329.66;;;14.78;100.00
41264;BME280;26998;48.714;9.414;2023-04-21T10:49:09;98314.59;;;15.06;100.00
41264;BME280;26998;48.714;9.414;2023-04-21T10:54:34;98280.91;;;15.66;100.00
41264;BME280;26998;48.714;9.414;2023-04-21T10:57:05;98278.75;;;15.51;100.00
41264;BME280;26998;48.714;9.414;2023-04-21T10:59:35;98274.72;;;15.82;100.00
41264;BME280;26998;48.714;9.414;2023-04-21T11:02:05;98270.88;;;15.61;100.00
41264;BME280;26998;48.714;9.414;2023-04-21T11:04:32;98273.56;;;15.61;100.00
41264;BME280;26998;48.714;9.414;2023-04-21T11:07:21;98260.25;;;15.88;100.00
41264;BME280;26998;48.714;9.414;2023-04-21T11:10:03;98260.19;;;15.83;100.00
41264;BME280;26998;48.714;9.414;2023-04-21T11:12:36;98248.09;;;15.52;100.00
41264;BME280;26998;48.714;9.414;2023-04-21T11:15:10;98245.34;;;15.81;100.00
41264;BME280;26998;48.714;9.414;2023-04-21T11:17:37;98243.97;;;16.61;100.00
41264;BME280;26998;48.714;9.414;2023-04-21T11:20:06;98218.63;;;16.84;100.00
41264;BME280;26998;48.714;9.414;2023-04-21T11:22:35;98211.81;;;16.54;100.00
41264;BME280;26998;48.714;9.414;2023-04-21T11:25:15;98213.81;;;16.42;100.00
41264;BME280;26998;48.714;9.414;2023-04-21T11:27:55;98217.06;;;16.44;100.00
41264;BME280;26998;48.714;9.414;2023-04-21T11:30:31;98209.44;;;16.85;100.00
41264;BME280;26998;48.714;9.414;2023-04-21T11:32:58;98207.69;;;16.74;100.00
41264;BME280;26998;48.714;9.414;2023-04-21T11:35:26;98198.28;;;17.03;100.00
41264;BME280;26998;48.714;9.414;2023-04-21T11:37:54;98191.34;;;16.58;100.00
41264;BME280;26998;48.714;9.414;2023-04-21T11:40:21;98187.97;;;16.46;100.00
41264;BME280;26998;48.714;9.414;2023-04-21T11:42:49;98190.63;;;16.68;100.00
41264;BME280;26998;48.714;9.414;2023-04-21T11:45:17;98190.53;;;16.58;100.00
41264;BME280;26998;48.714;9.414;2023-04-21T11:47:47;98191.41;;;16.63;100.00
41264;BME280;26998;48.714;9.414;2023-04-21T11:50:30;98192.56;;;16.24;100.00
41264;BME280;26998;48.714;9.414;2023-04-21T11:53:01;98195.88;;;16.31;100.00
41264;BME280;26998;48.714;9.414;2023-04-21T11:55:28;98190.53;;;16.58;100.00
41264;BME280;26998;48.714;9.414;2023-04-21T11:57:55;98190.22;;;16.54;100.00
41264;BME280;26998;48.714;9.414;2023-04-21T12:00:22;98187.19;;;17.00;100.00
41264;BME280;26998;48.714;9.414;2023-04-21T12:02:55;98181.72;;;16.68;98.06
41264;BME280;26998;48.714;9.414;2023-04-21T12:05:22;98174.28;;;17.07;99.58
41264;BME280;26998;48.714;9.414;2023-04-21T12:07:48;98178.25;;;16.72;100.00
41264;BME280;26998;48.714;9.414;2023-04-21T12:10:19;98188.66;;;17.13;100.00
41264;BME280;26998;48.714;9.414;2023-04-21T12:12:47;98187.75;;;17.29;100.00
41264;BME280;26998;48.714;9.414;2023-04-21T12:15:19;98179.81;;;17.17;97.43
41264;BME280;26998;48.714;9.414;2023-04-21T12:17:48;98177.50;;;17.04;100.00
41264;BME280;26998;48.714;9.414;2023-04-21T12:20:22;98180.84;;;17.16;100.00
41264;BME280;26998;48.714;9.414;2023-04-21T12:22:49;98180.91;;;16.89;100.00
41264;BME280;26998;48.714;9.414;2023-04-21T12:25:16;98170.84;;;17.12;100.00
41264;BME280;26998;48.714;9.414;2023-04-21T12:27:51;98169.81;;;17.55;95.36
41264;BME280;26998;48.714;9.414;2023-04-21T12:30:19;98165.78;;;17.58;96.25
41264;BME280;26998;48.714;9.414;2023-04-21T12:32:46;98158.09;;;17.39;97.98
41264;BME280;26998;48.714;9.414;2023-04-21T12:35:13;98157.66;;;17.52;96.95
41264;BME280;26998;48.714;9.414;2023-04-21T12:37:39;98149.25;;;17.12;97.09
41264;BME280;26998;48.714;9.414;2023-04-21T12:40:06;98151.19;;;17.21;94.46
41264;BME280;26998;48.714;9.414;2023-04-21T12:42:33;98149.50;;;17.47;92.36
41264;BME280;26998;48.714;9.414;2023-04-21T12:45:04;98137.88;;;17.47;92.72
41264;BME280;26998;48.714;9.414;2023-04-21T12:47:31;98141.91;;;17.44;90.09
41264;BME280;26998;48.714;9.414;2023-04-21T12:50:01;98131.81;;;17.67;91.01
41264;BME280;26998;48.714;9.414;2023-04-21T12:52:28;98131.03;;;17.29;94.70
41264;BME280;26998;48.714;9.414;2023-04-21T12:54:54;98132.91;;;17.71;86.79
41264;BME280;26998;48.714;9.414;2023-04-21T12:57:21;98136.09;;;18.10;82.79
41264;BME280;26998;48.714;9.414;2023-04-21T12:59:50;98121.09;;;17.82;84.44
41264;BME280;26998;48.714;9.414;2023-04-21T13:02:17;98123.13;;;17.65;83.40
41264;BME280;26998;48.714;9.414;2023-04-21T13:04:43;98120.31;;;17.87;82.90
41264;BME280;26998;48.714;9.414;2023-04-21T13:07:10;98128.38;;;17.82;80.55
41264;BME280;26998;48.714;9.414;2023-04-21T13:09:37;98117.69;;;18.07;77.24